createdAt,value
2022-08-22T00:02:22.907Z,99.90
2022-08-22T00:02:43.290Z,99.90
2022-08-22T00:02:48.677Z,1.00
2022-08-22T00:02:49.264Z,99.90
2022-08-22T00:03:15.539Z,99.90
2022-08-22T00:03:48.803Z,99.90
2022-08-22T00:05:11.771Z,99.90
2022-08-22T00:06:24.271Z,99.90
2022-08-22T00:07:34.816Z,99.90
2022-08-22T00:08:48.450Z,99.90
2022-08-22T00:10:08.719Z,99.90
2022-08-22T00:11:25.811Z,99.90
2022-08-22T00:12:34.582Z,99.90
2022-08-22T00:14:04.044Z,99.90
2022-08-22T00:15:43.637Z,99.90
2022-08-22T00:17:21.541Z,99.90
2022-08-22T00:18:35.020Z,99.90
2022-08-22T00:20:02.609Z,99.90
2022-08-22T00:21:27.366Z,99.90
2022-08-22T00:22:57.488Z,99.90
2022-08-22T00:24:26.915Z,99.90
2022-08-22T00:25:46.582Z,99.90
2022-08-22T00:26:48.933Z,99.90
2022-08-22T00:28:11.613Z,99.90
2022-08-22T00:29:19.267Z,99.90
2022-08-22T00:30:21.227Z,99.90
2022-08-22T00:31:26.544Z,99.90
2022-08-22T00:32:59.285Z,99.90
2022-08-22T00:34:32.888Z,99.90
2022-08-22T00:35:47.770Z,99.90
2022-08-22T00:37:21.876Z,99.90
2022-08-22T00:38:35.227Z,99.90
2022-08-22T00:40:03.206Z,99.90
2022-08-22T00:41:28.446Z,99.90
2022-08-22T00:42:54.706Z,99.90
2022-08-22T00:44:26.416Z,99.90
2022-08-22T00:46:06.029Z,99.90
2022-08-22T00:47:38.449Z,99.90
2022-08-22T00:48:42.960Z,99.90
2022-08-22T00:50:19.198Z,99.90
2022-08-22T00:51:44.962Z,99.90
2022-08-22T00:53:12.370Z,99.90
2022-08-22T00:54:43.714Z,99.90
2022-08-22T00:56:21.603Z,99.90
2022-08-22T00:57:52.866Z,99.90
2022-08-22T00:59:23.828Z,99.90
2022-08-22T01:00:29.202Z,99.90
2022-08-22T01:01:37.733Z,99.90
2022-08-22T01:03:11.990Z,99.90
2022-08-22T01:04:55.165Z,99.90
2022-08-22T01:06:04.988Z,99.90
2022-08-22T01:07:38.509Z,99.90
2022-08-22T01:09:01.412Z,99.90
2022-08-22T01:10:35.479Z,99.90
2022-08-22T01:11:43.118Z,99.90
2022-08-22T01:13:10.595Z,99.90
2022-08-22T01:14:37.106Z,99.90
2022-08-22T01:15:40.471Z,99.90
2022-08-22T01:17:07.235Z,99.90
2022-08-22T01:18:25.952Z,99.90
2022-08-22T01:19:55.657Z,99.90
2022-08-22T01:21:35.909Z,99.90
2022-08-22T01:23:21.533Z,99.90
2022-08-22T01:25:07.105Z,99.90
2022-08-22T01:26:20.982Z,99.90
2022-08-22T01:27:41.640Z,99.90
2022-08-22T01:29:04.785Z,99.90
2022-08-22T01:30:48.968Z,99.90
2022-08-22T01:32:15.164Z,99.90
2022-08-22T01:33:35.251Z,99.90
2022-08-22T01:34:56.233Z,99.90
2022-08-22T01:36:32.673Z,99.90
2022-08-22T01:37:59.566Z,99.90
2022-08-22T01:39:42.773Z,99.90
2022-08-22T01:41:02.444Z,99.90
2022-08-22T01:42:22.000Z,99.90
2022-08-22T01:43:51.352Z,99.90
2022-08-22T01:45:31.931Z,99.90
2022-08-22T01:46:47.163Z,99.90
2022-08-22T01:48:00.053Z,99.90
2022-08-22T01:49:26.581Z,99.90
2022-08-22T01:50:37.949Z,99.90
2022-08-22T01:51:59.991Z,99.90
2022-08-22T01:53:05.044Z,99.90
2022-08-22T01:54:21.496Z,99.90
2022-08-22T01:55:38.928Z,99.90
2022-08-22T01:56:45.183Z,99.90
2022-08-22T01:57:59.440Z,99.90
2022-08-22T01:59:10.967Z,99.90
2022-08-22T02:00:18.164Z,99.90
2022-08-22T02:01:40.928Z,99.90
2022-08-22T02:03:19.787Z,99.90
2022-08-22T02:04:52.913Z,99.90
2022-08-22T02:06:05.916Z,99.90
2022-08-22T02:07:19.394Z,99.90
2022-08-22T02:08:33.438Z,99.90
2022-08-22T02:10:23.000Z,99.90
2022-08-22T02:11:54.318Z,99.90
2022-08-22T02:13:25.029Z,99.90
2022-08-22T02:14:32.808Z,99.90
2022-08-22T02:15:40.472Z,99.90
2022-08-22T02:16:47.020Z,99.90
2022-08-22T02:18:12.275Z,99.90
2022-08-22T02:19:16.921Z,99.90
2022-08-22T02:20:25.989Z,99.90
2022-08-22T02:21:56.456Z,99.90
2022-08-22T02:23:04.095Z,99.90
2022-08-22T02:24:19.451Z,99.90
2022-08-22T02:25:30.138Z,99.90
2022-08-22T02:26:46.990Z,99.90
2022-08-22T02:28:06.211Z,99.90
2022-08-22T02:29:17.495Z,99.90
2022-08-22T02:30:25.393Z,99.90
2022-08-22T02:31:54.805Z,99.90
2022-08-22T02:33:12.656Z,99.90
2022-08-22T02:34:20.029Z,99.90
2022-08-22T02:35:31.090Z,99.90
2022-08-22T02:36:58.209Z,99.90
2022-08-22T02:38:09.755Z,99.90
2022-08-22T02:39:32.126Z,99.90
2022-08-22T02:40:59.544Z,99.90
2022-08-22T02:42:27.074Z,99.90
2022-08-22T02:43:49.667Z,99.90
2022-08-22T02:45:19.933Z,99.90
2022-08-22T02:46:28.266Z,99.90
2022-08-22T02:47:35.517Z,99.90
2022-08-22T02:48:59.828Z,99.90
2022-08-22T02:50:36.833Z,99.90
2022-08-22T02:51:53.439Z,99.90
2022-08-22T02:53:21.082Z,99.90
2022-08-22T02:54:30.577Z,99.90
2022-08-22T02:56:06.265Z,99.90
2022-08-22T02:57:47.210Z,99.90
2022-08-22T02:58:59.287Z,99.90
2022-08-22T03:00:31.742Z,99.90
2022-08-22T03:01:40.902Z,99.90
2022-08-22T03:02:45.700Z,99.90
2022-08-22T03:03:48.536Z,99.90
2022-08-22T03:05:22.692Z,99.90
2022-08-22T03:06:43.663Z,99.90
2022-08-22T03:07:56.082Z,99.90
2022-08-22T03:09:16.353Z,99.90
2022-08-22T03:10:26.073Z,99.90
2022-08-22T03:11:32.021Z,99.90
2022-08-22T03:13:21.525Z,99.90
2022-08-22T03:14:43.353Z,99.90
2022-08-22T03:16:14.964Z,99.90
2022-08-22T03:17:25.518Z,99.90
2022-08-22T03:18:54.368Z,99.90
2022-08-22T03:20:12.828Z,99.90
2022-08-22T03:21:57.571Z,99.90
2022-08-22T03:23:36.100Z,99.90
2022-08-22T03:24:50.131Z,99.90
2022-08-22T03:26:25.988Z,99.90
2022-08-22T03:27:33.446Z,99.90
2022-08-22T03:28:58.911Z,99.90
2022-08-22T03:30:16.560Z,99.90
2022-08-22T03:31:24.226Z,99.90
2022-08-22T03:32:50.491Z,99.90
2022-08-22T03:34:15.905Z,99.90
2022-08-22T03:35:34.970Z,99.90
2022-08-22T03:36:37.425Z,99.90
2022-08-22T03:37:42.041Z,99.90
2022-08-22T03:39:19.021Z,99.90
2022-08-22T03:40:33.370Z,99.90
2022-08-22T03:41:59.928Z,99.90
2022-08-22T03:43:21.342Z,99.90
2022-08-22T03:44:55.517Z,99.90
2022-08-22T03:46:17.838Z,99.90
2022-08-22T03:47:25.356Z,99.90
2022-08-22T03:49:01.022Z,99.90
2022-08-22T03:50:28.734Z,99.90
2022-08-22T03:52:02.376Z,99.90
2022-08-22T03:53:15.225Z,99.90
2022-08-22T03:54:49.884Z,99.90
2022-08-22T03:56:16.718Z,99.90
2022-08-22T03:57:50.819Z,99.90
2022-08-22T03:59:09.966Z,99.90
2022-08-22T04:00:36.925Z,99.90
2022-08-22T04:01:41.472Z,99.90
2022-08-22T04:03:07.268Z,99.90
2022-08-22T04:04:21.288Z,99.90
2022-08-22T04:06:02.106Z,99.90
2022-08-22T04:07:31.507Z,99.90
2022-08-22T04:08:49.028Z,99.90
2022-08-22T04:10:28.753Z,99.90
2022-08-22T04:11:49.824Z,99.90
2022-08-22T04:13:13.052Z,99.90
2022-08-22T04:14:14.605Z,99.90
2022-08-22T04:15:16.197Z,99.90
2022-08-22T04:16:44.808Z,99.90
2022-08-22T04:18:11.216Z,99.90
2022-08-22T04:19:39.317Z,99.90
2022-08-22T04:21:10.678Z,99.90
2022-08-22T04:22:20.594Z,99.90
2022-08-22T04:23:52.969Z,99.90
2022-08-22T04:25:10.053Z,99.90
2022-08-22T04:26:26.777Z,99.90
2022-08-22T04:27:43.468Z,99.90
2022-08-22T04:28:50.811Z,99.90
2022-08-22T04:30:16.981Z,99.90
2022-08-22T04:31:24.539Z,99.90
2022-08-22T04:32:44.935Z,99.90
2022-08-22T04:33:49.675Z,99.90
2022-08-22T04:35:06.810Z,99.90
2022-08-22T04:36:17.641Z,99.90
2022-08-22T04:37:43.516Z,99.90
2022-08-22T04:38:58.055Z,99.90
2022-08-22T04:40:24.650Z,99.90
2022-08-22T04:41:53.084Z,99.90
2022-08-22T04:43:03.803Z,99.90
2022-08-22T04:44:16.885Z,99.90
2022-08-22T04:45:23.802Z,99.90
2022-08-22T04:46:41.571Z,99.90
2022-08-22T04:48:00.583Z,99.90
2022-08-22T04:49:24.550Z,99.90
2022-08-22T04:50:43.403Z,99.90
2022-08-22T04:52:02.848Z,99.90
2022-08-22T04:53:28.784Z,99.90
2022-08-22T04:54:43.283Z,99.90
2022-08-22T04:56:07.104Z,99.90
2022-08-22T04:57:10.235Z,99.90
2022-08-22T04:58:41.496Z,99.90
2022-08-22T04:59:43.835Z,99.90
2022-08-22T05:01:11.982Z,99.90
2022-08-22T05:02:22.615Z,99.90
2022-08-22T05:03:26.890Z,99.90
2022-08-22T05:05:01.628Z,99.90
2022-08-22T05:06:05.363Z,99.90
2022-08-22T05:07:33.958Z,99.90
2022-08-22T05:08:40.408Z,99.90
2022-08-22T05:09:47.429Z,99.90
2022-08-22T05:10:50.665Z,99.90
2022-08-22T05:11:58.014Z,99.90
2022-08-22T05:13:06.784Z,99.90
2022-08-22T05:14:36.547Z,99.90
2022-08-22T05:15:43.565Z,99.90
2022-08-22T05:16:50.675Z,99.90
2022-08-22T05:17:56.055Z,99.90
2022-08-22T05:19:03.150Z,99.90
2022-08-22T05:20:11.731Z,99.90
2022-08-22T05:21:16.545Z,99.90
2022-08-22T05:22:24.948Z,99.90
2022-08-22T05:23:39.534Z,99.90
2022-08-22T05:24:46.365Z,99.90
2022-08-22T05:25:52.101Z,99.90
2022-08-22T05:27:00.837Z,99.90
2022-08-22T05:28:11.959Z,99.90
2022-08-22T05:29:18.416Z,99.90
2022-08-22T05:30:24.786Z,99.90
2022-08-22T05:31:31.017Z,99.90
2022-08-22T05:32:50.630Z,99.90
2022-08-22T05:33:56.643Z,99.90
2022-08-22T05:35:01.091Z,99.90
2022-08-22T05:36:25.186Z,99.90
2022-08-22T05:37:49.725Z,99.90
2022-08-22T05:38:59.821Z,99.90
2022-08-22T05:40:02.106Z,99.90
2022-08-22T05:41:10.048Z,99.90
2022-08-22T05:42:37.931Z,99.90
2022-08-22T05:43:43.157Z,99.90
2022-08-22T05:44:44.913Z,99.90
2022-08-22T05:45:47.640Z,99.90
2022-08-22T05:47:04.761Z,99.90
2022-08-22T05:48:20.472Z,99.90
2022-08-22T05:49:40.146Z,99.90
2022-08-22T05:51:05.689Z,99.90
2022-08-22T05:52:29.307Z,99.90
2022-08-22T05:53:42.094Z,99.90
2022-08-22T05:55:03.172Z,99.90
2022-08-22T05:56:10.658Z,99.90
2022-08-22T05:57:30.559Z,99.90
2022-08-22T05:58:54.193Z,99.90
2022-08-22T06:00:05.088Z,99.90
2022-08-22T06:01:20.599Z,99.90
2022-08-22T06:02:29.643Z,99.90
2022-08-22T06:03:41.496Z,99.90
2022-08-22T06:04:58.683Z,99.90
2022-08-22T06:06:11.504Z,99.90
2022-08-22T06:07:31.181Z,99.90
2022-08-22T06:08:38.417Z,99.90
2022-08-22T06:09:46.137Z,99.90
2022-08-22T06:10:54.967Z,99.90
2022-08-22T06:12:40.177Z,99.90
2022-08-22T06:13:53.479Z,99.90
2022-08-22T06:15:12.692Z,99.90
2022-08-22T06:16:38.850Z,99.90
2022-08-22T06:17:52.447Z,99.90
2022-08-22T06:18:54.820Z,99.90
2022-08-22T06:19:57.214Z,99.90
2022-08-22T06:21:06.425Z,99.90
2022-08-22T06:22:09.248Z,99.90
2022-08-22T06:23:26.699Z,99.90
2022-08-22T06:24:28.830Z,99.90
2022-08-22T06:25:33.813Z,99.90
2022-08-22T06:26:48.258Z,99.90
2022-08-22T06:27:51.397Z,99.90
2022-08-22T06:28:58.274Z,99.90
2022-08-22T06:30:03.049Z,99.90
2022-08-22T06:31:06.169Z,99.90
2022-08-22T06:32:16.487Z,99.90
2022-08-22T06:33:38.444Z,99.90
2022-08-22T06:34:44.053Z,99.90
2022-08-22T06:36:18.389Z,99.90
2022-08-22T06:37:33.702Z,99.90
2022-08-22T06:38:54.083Z,99.90
2022-08-22T06:39:56.642Z,99.90
2022-08-22T06:41:06.163Z,99.90
2022-08-22T06:42:16.782Z,99.90
2022-08-22T06:43:19.803Z,99.90
2022-08-22T06:44:26.277Z,99.90
2022-08-22T06:45:31.254Z,99.90
2022-08-22T06:46:36.296Z,99.90
2022-08-22T06:48:00.948Z,99.90
2022-08-22T06:49:05.404Z,99.90
2022-08-22T06:50:13.744Z,99.90
2022-08-22T06:51:17.898Z,96.90
2022-08-22T06:52:23.347Z,89.00
2022-08-22T06:53:34.311Z,93.20
2022-08-22T06:54:43.232Z,95.60
2022-08-22T06:55:50.548Z,99.90
2022-08-22T06:56:54.344Z,99.90
2022-08-22T06:58:03.534Z,99.90
2022-08-22T06:59:10.734Z,97.60
2022-08-22T07:00:15.995Z,94.00
2022-08-22T07:01:24.372Z,92.10
2022-08-22T07:02:42.558Z,91.60
2022-08-22T07:03:51.842Z,79.60
2022-08-22T07:04:53.699Z,66.50
2022-08-22T07:05:56.544Z,78.30
2022-08-22T07:07:00.686Z,73.60
2022-08-22T07:08:12.355Z,87.70
2022-08-22T07:09:26.463Z,65.30
2022-08-22T07:10:28.127Z,64.50
2022-08-22T07:11:32.501Z,64.30
2022-08-22T07:12:39.049Z,83.90
2022-08-22T07:13:44.858Z,90.30
2022-08-22T07:14:51.829Z,89.80
2022-08-22T07:15:59.884Z,90.60
2022-08-22T07:17:04.658Z,94.60
2022-08-22T07:18:27.643Z,93.00
2022-08-22T07:19:38.932Z,95.80
2022-08-22T07:20:45.655Z,99.90
2022-08-22T07:21:48.985Z,95.50
2022-08-22T07:22:57.660Z,99.80
2022-08-22T07:24:01.273Z,99.90
2022-08-22T07:25:09.335Z,99.90
2022-08-22T07:26:22.645Z,99.90
2022-08-22T07:27:55.061Z,99.90
2022-08-22T07:29:14.626Z,99.90
2022-08-22T07:30:27.263Z,99.90
2022-08-22T07:31:37.202Z,99.90
2022-08-22T07:33:21.263Z,99.90
2022-08-22T07:34:33.676Z,99.90
2022-08-22T07:35:42.202Z,99.90
2022-08-22T07:37:26.953Z,99.90
2022-08-22T07:38:35.940Z,99.90
2022-08-22T07:39:43.427Z,99.90
2022-08-22T07:41:05.153Z,99.90
2022-08-22T07:42:18.762Z,99.90
2022-08-22T07:43:27.760Z,99.90
2022-08-22T07:44:38.464Z,99.90
2022-08-22T07:46:01.370Z,99.90
2022-08-22T07:47:12.746Z,99.90
2022-08-22T07:49:05.862Z,95.20
2022-08-22T07:50:08.304Z,84.30
2022-08-22T07:51:17.461Z,71.60
2022-08-22T07:52:20.205Z,55.00
2022-08-22T07:53:31.173Z,54.20
2022-08-22T07:54:53.761Z,57.10
2022-08-22T07:55:57.624Z,60.30
2022-08-22T07:57:07.274Z,32.70
2022-08-22T07:58:13.641Z,7.80
2022-08-22T07:59:19.910Z,8.80
2022-08-22T08:00:23.419Z,10.80
2022-08-22T08:01:26.843Z,16.80
2022-08-22T08:02:29.146Z,22.20
2022-08-22T08:03:31.733Z,18.50
2022-08-22T08:04:40.060Z,23.10
2022-08-22T08:05:44.599Z,18.20
2022-08-22T08:06:50.815Z,14.40
2022-08-22T08:07:54.545Z,2.90
2022-08-22T08:08:57.613Z,5.70
2022-08-22T08:10:12.776Z,1.00
2022-08-22T08:11:18.851Z,1.00
2022-08-22T08:12:33.189Z,1.00
2022-08-22T08:13:37.899Z,1.00
2022-08-22T08:14:45.918Z,1.00
2022-08-22T08:15:49.538Z,1.00
2022-08-22T08:16:57.056Z,1.00
2022-08-22T08:18:05.527Z,1.00
2022-08-22T08:19:08.860Z,1.00
2022-08-22T08:20:14.242Z,1.00
2022-08-22T08:21:30.059Z,1.00
2022-08-22T08:22:32.524Z,1.00
2022-08-22T08:23:46.108Z,1.00
2022-08-22T08:24:49.432Z,1.00
2022-08-22T08:25:57.979Z,1.00
2022-08-22T08:27:21.841Z,1.00
2022-08-22T08:28:36.031Z,1.00
2022-08-22T08:29:38.603Z,1.00
2022-08-22T08:30:47.908Z,1.00
2022-08-22T08:31:49.672Z,1.00
2022-08-22T08:32:59.625Z,1.00
2022-08-22T08:34:24.524Z,1.00
2022-08-22T08:35:29.813Z,1.00
2022-08-22T08:36:53.277Z,1.00
2022-08-22T08:38:01.580Z,1.00
2022-08-22T08:39:13.948Z,1.00
2022-08-22T08:40:49.181Z,1.00
2022-08-22T08:41:50.901Z,1.00
2022-08-22T08:43:27.552Z,1.00
2022-08-22T08:44:57.363Z,1.00
2022-08-22T08:46:33.045Z,1.00
2022-08-22T08:48:07.958Z,1.00
2022-08-22T08:49:23.981Z,1.00
2022-08-22T08:50:48.212Z,1.00
2022-08-22T08:52:16.008Z,1.00
2022-08-22T08:53:35.903Z,1.00
2022-08-22T08:55:22.623Z,1.00
2022-08-22T08:56:47.294Z,1.00
2022-08-22T08:58:17.687Z,1.00
2022-08-22T08:59:47.276Z,1.00
2022-08-22T09:00:57.122Z,1.00
2022-08-22T09:02:33.882Z,1.00
2022-08-22T09:04:15.412Z,1.00
2022-08-22T09:05:29.106Z,1.00
2022-08-22T09:06:44.215Z,1.00
2022-08-22T09:08:27.711Z,1.00
2022-08-22T09:09:54.170Z,1.00
2022-08-22T09:11:04.371Z,1.00
2022-08-22T09:12:38.282Z,1.00
2022-08-22T09:14:02.769Z,1.00
2022-08-22T09:15:05.243Z,1.00
2022-08-22T09:16:29.569Z,1.00
2022-08-22T09:17:53.109Z,1.00
2022-08-22T09:19:20.271Z,1.00
2022-08-22T09:20:49.091Z,1.00
2022-08-22T09:21:57.275Z,1.00
2022-08-22T09:23:14.508Z,1.00
2022-08-22T09:24:36.612Z,1.00
2022-08-22T09:26:19.511Z,1.00
2022-08-22T09:27:34.370Z,1.00
2022-08-22T09:28:41.885Z,1.00
2022-08-22T09:29:57.099Z,1.00
2022-08-22T09:31:44.806Z,1.00
2022-08-22T09:33:03.720Z,1.00
2022-08-22T09:34:29.981Z,1.00
2022-08-22T09:35:38.581Z,1.00
2022-08-22T09:36:55.824Z,1.00
2022-08-22T09:38:26.472Z,1.00
2022-08-22T09:39:54.133Z,1.00
2022-08-22T09:41:25.130Z,1.00
2022-08-22T09:42:37.975Z,1.00
2022-08-22T09:43:56.180Z,1.00
2022-08-22T09:45:39.014Z,1.00
2022-08-22T09:46:49.597Z,1.00
2022-08-22T09:48:07.257Z,1.00
2022-08-22T09:49:36.039Z,1.00
2022-08-22T09:51:13.568Z,1.00
2022-08-22T09:52:48.373Z,1.00
2022-08-22T09:53:58.403Z,1.00
2022-08-22T09:55:07.997Z,1.00
2022-08-22T09:56:26.282Z,1.00
2022-08-22T09:57:59.625Z,1.00
2022-08-22T09:59:13.573Z,1.00
2022-08-22T10:00:35.374Z,1.00
2022-08-22T10:02:06.987Z,1.00
2022-08-22T10:03:25.386Z,1.00
2022-08-22T10:04:56.224Z,1.00
2022-08-22T10:06:05.607Z,1.00
2022-08-22T10:07:51.544Z,1.00
2022-08-22T10:09:08.966Z,1.00
2022-08-22T10:10:40.838Z,1.00
2022-08-22T10:11:49.718Z,1.00
2022-08-22T10:12:51.827Z,1.00
2022-08-22T10:14:02.276Z,1.00
2022-08-22T10:15:22.734Z,1.00
2022-08-22T10:16:43.955Z,1.00
2022-08-22T10:18:30.624Z,1.00
2022-08-22T10:19:43.162Z,1.00
2022-08-22T10:20:58.464Z,1.00
2022-08-22T10:22:20.357Z,1.00
2022-08-22T10:23:51.401Z,1.00
2022-08-22T10:25:18.431Z,1.00
2022-08-22T10:26:47.456Z,1.00
2022-08-22T10:28:14.928Z,1.00
2022-08-22T10:29:49.116Z,1.00
2022-08-22T10:31:02.041Z,1.00
2022-08-22T10:32:27.135Z,1.00
2022-08-22T10:33:38.072Z,1.00
2022-08-22T10:34:47.915Z,1.00
2022-08-22T10:36:00.845Z,1.00
2022-08-22T10:37:39.690Z,1.00
2022-08-22T10:38:54.741Z,1.00
2022-08-22T10:40:14.051Z,1.00
2022-08-22T10:41:42.688Z,1.00
2022-08-22T10:43:12.049Z,1.00
2022-08-22T10:44:27.125Z,1.00
2022-08-22T10:45:36.547Z,1.00
2022-08-22T10:46:57.138Z,1.00
2022-08-22T10:47:58.813Z,1.00
2022-08-22T10:49:07.857Z,1.00
2022-08-22T10:50:21.995Z,1.00
2022-08-22T10:51:28.681Z,1.00
2022-08-22T10:52:35.090Z,1.00
2022-08-22T10:53:59.556Z,1.00
2022-08-22T10:55:20.092Z,1.00
2022-08-22T10:56:50.831Z,1.00
2022-08-22T10:58:08.892Z,1.00
2022-08-22T10:59:20.151Z,1.00
2022-08-22T11:00:46.242Z,1.00
2022-08-22T11:02:06.255Z,1.00
2022-08-22T11:03:28.090Z,1.00
2022-08-22T11:04:42.503Z,1.00
2022-08-22T11:05:50.106Z,1.00
2022-08-22T11:07:33.890Z,1.00
2022-08-22T11:08:58.669Z,1.00
2022-08-22T11:10:09.115Z,1.00
2022-08-22T11:11:26.351Z,1.00
2022-08-22T11:12:43.666Z,1.00
2022-08-22T11:14:00.404Z,1.00
2022-08-22T11:15:39.628Z,1.00
2022-08-22T11:16:44.201Z,1.00
2022-08-22T11:18:04.267Z,1.00
2022-08-22T11:19:34.232Z,1.00
2022-08-22T11:20:54.987Z,1.00
2022-08-22T11:22:34.381Z,1.00
2022-08-22T11:24:07.446Z,1.00
2022-08-22T11:25:38.393Z,1.00
2022-08-22T11:27:07.370Z,1.00
2022-08-22T11:28:40.222Z,1.00
2022-08-22T11:29:59.162Z,1.00
2022-08-22T11:31:09.608Z,1.00
2022-08-22T11:32:17.000Z,1.00
2022-08-22T11:33:47.402Z,1.00
2022-08-22T11:35:24.153Z,1.00
2022-08-22T11:36:34.304Z,1.00
2022-08-22T11:38:06.926Z,1.00
2022-08-22T11:39:19.000Z,1.00
2022-08-22T11:40:56.609Z,1.00
2022-08-22T11:42:23.638Z,1.00
2022-08-22T11:44:04.408Z,1.00
2022-08-22T11:45:07.873Z,1.00
2022-08-22T11:46:30.147Z,1.00
2022-08-22T11:47:47.068Z,1.00
2022-08-22T11:49:00.421Z,1.00
2022-08-22T11:50:13.967Z,1.00
2022-08-22T11:51:53.080Z,1.00
2022-08-22T11:53:33.863Z,1.00
2022-08-22T11:54:58.750Z,1.00
2022-08-22T11:56:18.807Z,1.00
2022-08-22T11:57:32.096Z,1.00
2022-08-22T11:58:33.801Z,1.00
2022-08-22T12:00:00.689Z,1.00
2022-08-22T12:01:17.403Z,1.00
2022-08-22T12:02:40.885Z,1.00
2022-08-22T12:04:05.538Z,1.00
2022-08-22T12:05:21.560Z,1.00
2022-08-22T12:06:45.226Z,1.00
2022-08-22T12:08:10.524Z,1.00
2022-08-22T12:09:31.918Z,1.00
2022-08-22T12:10:47.143Z,1.00
2022-08-22T12:12:25.716Z,1.00
2022-08-22T12:13:51.883Z,1.00
2022-08-22T12:15:23.160Z,1.00
2022-08-22T12:16:31.916Z,1.00
2022-08-22T12:18:01.325Z,1.00
2022-08-22T12:19:32.785Z,1.00
2022-08-22T12:20:55.445Z,1.00
2022-08-22T12:22:34.770Z,1.00
2022-08-22T12:24:19.423Z,1.00
2022-08-22T12:26:11.078Z,1.00
2022-08-22T12:27:40.525Z,1.00
2022-08-22T12:28:57.949Z,1.00
2022-08-22T12:30:19.565Z,1.00
2022-08-22T12:31:47.187Z,1.00
2022-08-22T12:33:09.789Z,1.00
2022-08-22T12:34:36.463Z,1.00
2022-08-22T12:36:02.824Z,1.00
2022-08-22T12:37:52.114Z,1.00
2022-08-22T12:38:57.587Z,1.00
2022-08-22T12:40:33.200Z,1.00
2022-08-22T12:42:05.769Z,1.00
2022-08-22T12:43:39.912Z,1.00
2022-08-22T12:45:07.094Z,1.00
2022-08-22T12:46:16.236Z,1.00
2022-08-22T12:47:32.008Z,1.00
2022-08-22T12:48:55.122Z,1.00
2022-08-22T12:50:31.582Z,1.00
2022-08-22T12:52:04.243Z,1.00
2022-08-22T12:53:43.629Z,1.00
2022-08-22T12:54:56.991Z,1.00
2022-08-22T12:56:16.581Z,1.00
2022-08-22T12:57:55.718Z,1.00
2022-08-22T12:59:14.615Z,1.00
2022-08-22T13:00:26.786Z,1.00
2022-08-22T13:01:43.309Z,1.00
2022-08-22T13:02:46.736Z,1.00
2022-08-22T13:03:53.953Z,1.00
2022-08-22T13:05:02.368Z,1.00
2022-08-22T13:06:36.874Z,1.00
2022-08-22T13:07:43.800Z,1.00
2022-08-22T13:08:47.029Z,1.00
2022-08-22T13:09:54.127Z,1.00
2022-08-22T13:11:15.128Z,1.00
2022-08-22T13:12:27.821Z,1.00
2022-08-22T13:13:38.713Z,1.00
2022-08-22T13:14:44.816Z,1.00
2022-08-22T13:15:58.235Z,1.00
2022-08-22T13:17:33.780Z,1.00
2022-08-22T13:18:46.084Z,1.00
2022-08-22T13:20:10.122Z,1.00
2022-08-22T13:21:17.318Z,1.00
2022-08-22T13:23:12.659Z,1.00
2022-08-22T13:24:38.545Z,1.00
2022-08-22T13:26:01.845Z,1.00
2022-08-22T13:27:08.956Z,1.00
2022-08-22T13:28:13.338Z,1.00
2022-08-22T13:29:27.467Z,1.00
2022-08-22T13:30:43.792Z,1.00
2022-08-22T13:31:53.084Z,1.00
2022-08-22T13:33:08.509Z,1.00
2022-08-22T13:34:39.577Z,1.00
2022-08-22T13:35:51.941Z,1.00
2022-08-22T13:36:59.374Z,1.00
2022-08-22T13:38:12.222Z,1.00
2022-08-22T13:39:14.650Z,1.00
2022-08-22T13:40:28.996Z,1.00
2022-08-22T13:41:35.463Z,1.00
2022-08-22T13:42:47.992Z,1.00
2022-08-22T13:43:57.568Z,1.00
2022-08-22T13:45:10.659Z,1.00
2022-08-22T13:46:12.546Z,1.00
2022-08-22T13:47:17.410Z,1.00
2022-08-22T13:48:23.599Z,1.00
2022-08-22T13:49:36.655Z,1.00
2022-08-22T13:51:03.912Z,1.00
2022-08-22T13:52:28.998Z,1.00
2022-08-22T13:53:49.871Z,1.00
2022-08-22T13:55:12.477Z,1.00
2022-08-22T13:56:22.981Z,1.00
2022-08-22T13:58:06.709Z,1.00
2022-08-22T13:59:51.507Z,1.00
2022-08-22T14:01:10.145Z,1.00
2022-08-22T14:02:37.973Z,1.00
2022-08-22T14:04:17.558Z,1.00
2022-08-22T14:07:06.607Z,1.00
2022-08-22T14:08:31.691Z,1.00
2022-08-22T14:09:53.002Z,1.00
2022-08-22T14:11:06.808Z,1.00
2022-08-22T14:12:32.614Z,1.00
2022-08-22T14:13:44.348Z,1.00
2022-08-22T14:14:54.237Z,1.00
2022-08-22T14:16:06.679Z,1.00
2022-08-22T14:17:28.067Z,1.00
2022-08-22T14:18:44.381Z,1.00
2022-08-22T14:20:02.435Z,1.00
2022-08-22T14:21:27.324Z,1.00
2022-08-22T14:22:35.181Z,1.00
2022-08-22T14:23:37.652Z,1.00
2022-08-22T14:24:55.574Z,1.00
2022-08-22T14:25:57.729Z,1.00
2022-08-22T14:27:09.479Z,1.00
2022-08-22T14:28:29.278Z,1.00
2022-08-22T14:29:53.377Z,1.00
2022-08-22T14:31:00.895Z,1.00
2022-08-22T14:32:12.432Z,1.00
2022-08-22T14:33:25.498Z,1.00
2022-08-22T14:34:34.747Z,1.00
2022-08-22T14:35:52.862Z,1.00
2022-08-22T14:36:58.235Z,1.00
2022-08-22T14:38:29.794Z,1.00
2022-08-22T14:39:48.357Z,1.00
2022-08-22T14:41:05.099Z,1.00
2022-08-22T14:42:23.302Z,1.00
2022-08-22T14:43:34.872Z,1.00
2022-08-22T14:45:09.635Z,1.00
2022-08-22T14:46:19.217Z,1.00
2022-08-22T14:47:55.025Z,1.00
2022-08-22T14:49:14.510Z,1.00
2022-08-22T14:50:35.830Z,1.00
2022-08-22T14:51:38.696Z,1.00
2022-08-22T14:52:45.101Z,1.00
2022-08-22T14:53:46.747Z,1.00
2022-08-22T14:54:48.690Z,1.00
2022-08-22T14:55:58.752Z,1.00
2022-08-22T14:57:10.138Z,1.00
2022-08-22T14:58:18.191Z,1.00
2022-08-22T14:59:50.076Z,1.00
2022-08-22T15:00:53.527Z,1.00
2022-08-22T15:02:02.413Z,1.00
2022-08-22T15:03:28.874Z,1.00
2022-08-22T15:04:39.756Z,1.00
2022-08-22T15:05:48.936Z,1.00
2022-08-22T15:06:55.169Z,1.00
2022-08-22T15:07:59.475Z,1.00
2022-08-22T15:09:08.225Z,1.00
2022-08-22T15:10:24.215Z,1.00
2022-08-22T15:11:32.196Z,1.00
2022-08-22T15:12:38.817Z,1.00
2022-08-22T15:13:51.068Z,1.00
2022-08-22T15:14:56.770Z,1.00
2022-08-22T15:16:06.859Z,1.00
2022-08-22T15:17:11.416Z,1.00
2022-08-22T15:18:33.803Z,1.00
2022-08-22T15:19:42.837Z,1.00
2022-08-22T15:20:52.162Z,1.00
2022-08-22T15:22:14.812Z,1.00
2022-08-22T15:23:23.058Z,1.00
2022-08-22T15:24:24.803Z,1.00
2022-08-22T15:25:36.499Z,1.00
2022-08-22T15:26:52.922Z,1.00
2022-08-22T15:28:05.824Z,1.00
2022-08-22T15:29:17.365Z,1.00
2022-08-22T15:30:44.234Z,1.00
2022-08-22T15:31:51.113Z,1.00
2022-08-22T15:32:53.044Z,1.00
2022-08-22T15:34:06.848Z,1.00
2022-08-22T15:35:08.700Z,1.00
2022-08-22T15:36:22.085Z,1.00
2022-08-22T15:37:23.628Z,1.00
2022-08-22T15:38:36.220Z,1.00
2022-08-22T15:40:02.964Z,1.00
2022-08-22T15:41:36.201Z,1.00
2022-08-22T15:42:48.575Z,1.00
2022-08-22T15:44:00.363Z,1.00
2022-08-22T15:45:03.981Z,1.00
2022-08-22T15:46:21.296Z,1.00
2022-08-22T15:47:34.248Z,1.00
2022-08-22T15:48:39.084Z,1.00
2022-08-22T15:49:51.459Z,1.00
2022-08-22T15:51:03.219Z,1.00
2022-08-22T15:52:14.296Z,1.00
2022-08-22T15:53:28.453Z,1.00
2022-08-22T15:54:46.965Z,1.00
2022-08-22T15:56:11.548Z,1.00
2022-08-22T15:57:22.190Z,1.00
2022-08-22T15:58:24.961Z,1.00
2022-08-22T15:59:54.435Z,1.00
2022-08-22T16:01:19.914Z,1.00
2022-08-22T16:02:50.587Z,1.00
2022-08-22T16:04:04.965Z,1.00
2022-08-22T16:05:09.532Z,1.00
2022-08-22T16:06:11.696Z,1.00
2022-08-22T16:07:27.737Z,1.00
2022-08-22T16:08:48.177Z,1.00
2022-08-22T16:09:54.638Z,1.00
2022-08-22T16:11:02.339Z,1.00
2022-08-22T16:12:23.715Z,1.00
2022-08-22T16:13:30.710Z,1.00
2022-08-22T16:14:35.500Z,1.00
2022-08-22T16:15:54.395Z,1.00
2022-08-22T16:17:06.915Z,1.00
2022-08-22T16:18:08.506Z,1.00
2022-08-22T16:19:21.119Z,1.00
2022-08-22T16:20:45.539Z,1.00
2022-08-22T16:21:47.654Z,1.00
2022-08-22T16:22:57.851Z,1.00
2022-08-22T16:24:00.926Z,1.00
2022-08-22T16:25:05.898Z,1.00
2022-08-22T16:26:09.119Z,1.00
2022-08-22T16:27:22.871Z,1.00
2022-08-22T16:28:57.473Z,1.00
2022-08-22T16:30:05.711Z,1.00
2022-08-22T16:31:19.140Z,1.00
2022-08-22T16:32:28.151Z,1.00
2022-08-22T16:33:38.992Z,1.00
2022-08-22T16:34:45.767Z,1.00
2022-08-22T16:36:18.589Z,1.00
2022-08-22T16:37:45.545Z,1.00
2022-08-22T16:38:54.467Z,1.00
2022-08-22T16:39:58.909Z,1.00
2022-08-22T16:41:01.303Z,1.00
2022-08-22T16:42:22.478Z,1.00
2022-08-22T16:43:28.835Z,1.00
2022-08-22T16:44:30.726Z,1.00
2022-08-22T16:45:34.693Z,1.00
2022-08-22T16:46:43.495Z,1.00
2022-08-22T16:48:02.452Z,1.00
2022-08-22T16:49:04.645Z,1.00
2022-08-22T16:50:24.147Z,1.00
2022-08-22T16:51:25.790Z,1.00
2022-08-22T16:52:27.540Z,1.00
2022-08-22T16:53:29.189Z,1.00
2022-08-22T16:54:46.179Z,1.00